Shishmaref, AK

9:37 PM AKDT on September 26, 2016 (GMT -0800)
New Shishmaref | | Change Station
Active Advisory: High Surf Advisory

Elev 13 ft 66.25 °N, 166.09 °W | Updated 1 minute ago

Clear
Clear
36 °F
Feels Like 31 °F
N
6
Wind Variable Wind from SE

Today
High -- | Low -- °F
--% Chance of Precip.
Yesterday
High -- | Low -- °F
Precip. -- in
Pressure 30.06 in
Visibility 10.0 miles
Clouds Clear
Windchill 31 °F
Dew Point 25 °F
Humidity 65%
Rainfall 0.00 in
Snow Depth Not available.
9:01 AM 8:47 PM
Waning Crescent, 14% visible
METAR PASH 270536Z AUTO 13005KT 10SM CLR 02/M04 A3006 RMK AO1 PNO
Pressure 30.06 in
Visibility 10.0 miles
Clouds Clear
Windchill 31 °F
Dew Point 25 °F
Humidity 65%
Rainfall 0.00 in
Snow Depth Not available.
9:01 AM 8:47 PM
Waning Crescent, 14% visible
METAR PASH 270536Z AUTO 13005KT 10SM CLR 02/M04 A3006 RMK AO1 PNO

10-Day Weather Forecast

Almanac

Astronomy

Sep. 26, 2016 Rise Set
Actual Time
Civil Twilight
Nautical Twilight
Astronomical Twilight
Moon
Length of Visible Light
Length of Day
Tomorrow will be .
, % of the Moon is Illuminated

Today's Extremes

State Highs State Lows

Community

WunderPhotos

Upload Photos

1,942,037 photos uploaded!

WunderBlog® & News

Nearby

Air Quality

  Air Quality AQ Index Pollutant
Not available.

Snow Depth

Station Depth Elevation

Earthquake Activity

City Distance Mag. Time & Date
Minimum magnitude displayed is 2.5.

Coastal Water Temperatures

Place Temperature

Stations

Nearby Weather Stations

Station Location Temp. Windchill Dew Point Humidity Wind Precip. Elev Updated Type
                   

Watches & Warnings

High Surf Advisory
Issued: 1:08 PM AKDT Sep. 26, 2016 – National Weather Service

... High surf advisory in effect from 4 am Wednesday to 4 am akdt
Thursday...

The National Weather Service in Fairbanks has issued a high surf
advisory... which is in effect from 4 am Wednesday to 4 am akdt
Thursday.

* Waves and surf... waves to 7 feet breaking just offshore combined
with a storm surge of up to 2 feet will produce high surf
conditions.

* Timing... high surf conditions will develop Wednesday
morning... and will peak late Wednesday afternoon before
diminishing early Thursday.

* Impacts... the high surf and elevated sea levels could cause
localized beach erosion.

Precautionary/preparedness actions...

A high surf advisory means that localized beach erosion is
expected. Precautions should be taken to protect property.